sensor_id;sensor_type;location;lat;lon;timestamp;P1;durP1;ratioP1;P2;durP2;ratioP2
13764;SDS011;6953;48.810;9.204;2024-01-25T00:00:30;0.40;;;0.40;;
13764;SDS011;6953;48.810;9.204;2024-01-25T00:02:55;0.40;;;0.40;;
13764;SDS011;6953;48.810;9.204;2024-01-25T00:05:21;0.40;;;0.40;;
13764;SDS011;6953;48.810;9.204;2024-01-25T00:07:46;0.50;;;0.50;;
13764;SDS011;6953;48.810;9.204;2024-01-25T00:10:13;0.30;;;0.30;;
13764;SDS011;6953;48.810;9.204;2024-01-25T00:12:40;0.40;;;0.40;;
13764;SDS011;6953;48.810;9.204;2024-01-25T00:15:05;0.43;;;0.43;;
13764;SDS011;6953;48.810;9.204;2024-01-25T00:17:30;0.50;;;0.50;;
13764;SDS011;6953;48.810;9.204;2024-01-25T00:19:56;0.40;;;0.40;;
13764;SDS011;6953;48.810;9.204;2024-01-25T00:22:21;0.40;;;0.40;;
13764;SDS011;6953;48.810;9.204;2024-01-25T00:24:46;0.50;;;0.50;;
13764;SDS011;6953;48.810;9.204;2024-01-25T00:27:11;0.30;;;0.30;;
13764;SDS011;6953;48.810;9.204;2024-01-25T00:29:37;0.47;;;0.47;;
13764;SDS011;6953;48.810;9.204;2024-01-25T00:32:02;0.40;;;0.40;;
13764;SDS011;6953;48.810;9.204;2024-01-25T00:34:28;0.30;;;0.30;;
13764;SDS011;6953;48.810;9.204;2024-01-25T00:36:53;0.40;;;0.40;;
13764;SDS011;6953;48.810;9.204;2024-01-25T00:39:19;0.50;;;0.50;;
13764;SDS011;6953;48.810;9.204;2024-01-25T00:41:45;0.50;;;0.50;;
13764;SDS011;6953;48.810;9.204;2024-01-25T00:44:15;0.50;;;0.50;;
13764;SDS011;6953;48.810;9.204;2024-01-25T00:46:41;0.40;;;0.40;;
13764;SDS011;6953;48.810;9.204;2024-01-25T00:49:06;0.50;;;0.50;;
13764;SDS011;6953;48.810;9.204;2024-01-25T00:51:32;0.35;;;0.35;;
13764;SDS011;6953;48.810;9.204;2024-01-25T00:53:57;0.47;;;0.47;;
13764;SDS011;6953;48.810;9.204;2024-01-25T00:56:23;0.50;;;0.50;;
13764;SDS011;6953;48.810;9.204;2024-01-25T00:58:49;0.43;;;0.43;;
13764;SDS011;6953;48.810;9.204;2024-01-25T01:01:14;0.55;;;0.55;;
13764;SDS011;6953;48.810;9.204;2024-01-25T01:03:40;0.50;;;0.50;;
13764;SDS011;6953;48.810;9.204;2024-01-25T01:06:05;0.47;;;0.47;;
13764;SDS011;6953;48.810;9.204;2024-01-25T01:08:31;0.50;;;0.50;;
13764;SDS011;6953;48.810;9.204;2024-01-25T01:10:57;0.40;;;0.40;;
13764;SDS011;6953;48.810;9.204;2024-01-25T01:13:22;0.40;;;0.40;;
13764;SDS011;6953;48.810;9.204;2024-01-25T01:15:47;0.40;;;0.40;;
13764;SDS011;6953;48.810;9.204;2024-01-25T01:18:13;0.50;;;0.50;;
13764;SDS011;6953;48.810;9.204;2024-01-25T01:20:38;0.38;;;0.38;;
13764;SDS011;6953;48.810;9.204;2024-01-25T01:23:03;0.40;;;0.40;;
13764;SDS011;6953;48.810;9.204;2024-01-25T01:25:29;0.47;;;0.47;;
13764;SDS011;6953;48.810;9.204;2024-01-25T01:27:54;0.50;;;0.50;;
13764;SDS011;6953;48.810;9.204;2024-01-25T01:30:19;0.40;;;0.40;;
13764;SDS011;6953;48.810;9.204;2024-01-25T01:32:45;0.50;;;0.50;;
13764;SDS011;6953;48.810;9.204;2024-01-25T01:35:10;0.50;;;0.50;;
13764;SDS011;6953;48.810;9.204;2024-01-25T01:37:36;0.40;;;0.40;;
13764;SDS011;6953;48.810;9.204;2024-01-25T01:40:01;0.30;;;0.30;;
13764;SDS011;6953;48.810;9.204;2024-01-25T01:42:27;0.50;;;0.50;;
13764;SDS011;6953;48.810;9.204;2024-01-25T01:44:52;0.40;;;0.40;;
13764;SDS011;6953;48.810;9.204;2024-01-25T01:47:18;0.32;;;0.32;;
13764;SDS011;6953;48.810;9.204;2024-01-25T01:49:44;0.38;;;0.38;;
13764;SDS011;6953;48.810;9.204;2024-01-25T01:52:09;0.40;;;0.40;;
13764;SDS011;6953;48.810;9.204;2024-01-25T01:54:35;0.47;;;0.47;;
13764;SDS011;6953;48.810;9.204;2024-01-25T01:57:01;0.40;;;0.40;;
13764;SDS011;6953;48.810;9.204;2024-01-25T01:59:27;0.50;;;0.50;;
13764;SDS011;6953;48.810;9.204;2024-01-25T02:01:54;0.40;;;0.40;;
13764;SDS011;6953;48.810;9.204;2024-01-25T02:04:19;0.50;;;0.50;;
13764;SDS011;6953;48.810;9.204;2024-01-25T02:06:44;0.52;;;0.52;;
13764;SDS011;6953;48.810;9.204;2024-01-25T02:09:10;0.50;;;0.50;;
13764;SDS011;6953;48.810;9.204;2024-01-25T02:11:36;0.40;;;0.40;;
13764;SDS011;6953;48.810;9.204;2024-01-25T02:14:03;0.38;;;0.38;;
13764;SDS011;6953;48.810;9.204;2024-01-25T02:16:28;0.30;;;0.30;;
13764;SDS011;6953;48.810;9.204;2024-01-25T02:18:53;0.60;;;0.60;;
13764;SDS011;6953;48.810;9.204;2024-01-25T02:21:22;0.30;;;0.30;;
13764;SDS011;6953;48.810;9.204;2024-01-25T02:23:47;0.40;;;0.40;;
13764;SDS011;6953;48.810;9.204;2024-01-25T02:26:12;0.40;;;0.40;;
13764;SDS011;6953;48.810;9.204;2024-01-25T02:28:38;0.50;;;0.50;;
13764;SDS011;6953;48.810;9.204;2024-01-25T02:31:03;0.35;;;0.35;;
13764;SDS011;6953;48.810;9.204;2024-01-25T02:33:29;0.50;;;0.50;;
13764;SDS011;6953;48.810;9.204;2024-01-25T02:35:54;0.50;;;0.50;;
13764;SDS011;6953;48.810;9.204;2024-01-25T02:38:19;0.32;;;0.32;;
13764;SDS011;6953;48.810;9.204;2024-01-25T02:40:45;0.40;;;0.40;;
13764;SDS011;6953;48.810;9.204;2024-01-25T02:43:10;0.40;;;0.40;;
13764;SDS011;6953;48.810;9.204;2024-01-25T02:45:35;0.50;;;0.50;;
13764;SDS011;6953;48.810;9.204;2024-01-25T02:48:01;0.40;;;0.40;;
13764;SDS011;6953;48.810;9.204;2024-01-25T02:50:27;0.40;;;0.40;;
13764;SDS011;6953;48.810;9.204;2024-01-25T02:52:52;0.40;;;0.40;;
13764;SDS011;6953;48.810;9.204;2024-01-25T02:55:18;0.45;;;0.45;;
13764;SDS011;6953;48.810;9.204;2024-01-25T02:57:44;0.50;;;0.50;;
13764;SDS011;6953;48.810;9.204;2024-01-25T03:00:09;0.40;;;0.40;;
13764;SDS011;6953;48.810;9.204;2024-01-25T03:02:35;0.50;;;0.50;;
13764;SDS011;6953;48.810;9.204;2024-01-25T03:05:00;0.50;;;0.50;;
13764;SDS011;6953;48.810;9.204;2024-01-25T03:07:26;0.50;;;0.50;;
13764;SDS011;6953;48.810;9.204;2024-01-25T03:09:51;0.50;;;0.50;;
13764;SDS011;6953;48.810;9.204;2024-01-25T03:12:16;0.35;;;0.35;;
13764;SDS011;6953;48.810;9.204;2024-01-25T03:14:41;0.30;;;0.30;;
13764;SDS011;6953;48.810;9.204;2024-01-25T03:17:07;0.40;;;0.40;;
13764;SDS011;6953;48.810;9.204;2024-01-25T03:19:32;0.40;;;0.40;;
13764;SDS011;6953;48.810;9.204;2024-01-25T03:21:58;0.50;;;0.50;;
13764;SDS011;6953;48.810;9.204;2024-01-25T03:24:23;0.40;;;0.40;;
13764;SDS011;6953;48.810;9.204;2024-01-25T03:26:49;0.30;;;0.30;;
13764;SDS011;6953;48.810;9.204;2024-01-25T03:29:15;0.40;;;0.40;;
13764;SDS011;6953;48.810;9.204;2024-01-25T03:31:40;0.30;;;0.30;;
13764;SDS011;6953;48.810;9.204;2024-01-25T03:34:06;0.47;;;0.47;;
13764;SDS011;6953;48.810;9.204;2024-01-25T03:36:32;0.40;;;0.40;;
13764;SDS011;6953;48.810;9.204;2024-01-25T03:38:58;0.38;;;0.38;;
13764;SDS011;6953;48.810;9.204;2024-01-25T03:41:23;0.40;;;0.40;;
13764;SDS011;6953;48.810;9.204;2024-01-25T03:43:49;0.40;;;0.40;;
13764;SDS011;6953;48.810;9.204;2024-01-25T03:46:15;0.50;;;0.50;;
13764;SDS011;6953;48.810;9.204;2024-01-25T03:48:40;0.60;;;0.60;;
13764;SDS011;6953;48.810;9.204;2024-01-25T03:51:05;0.40;;;0.40;;
13764;SDS011;6953;48.810;9.204;2024-01-25T03:53:31;0.40;;;0.40;;
13764;SDS011;6953;48.810;9.204;2024-01-25T03:55:56;0.50;;;0.50;;
13764;SDS011;6953;48.810;9.204;2024-01-25T03:58:21;0.47;;;0.47;;
13764;SDS011;6953;48.810;9.204;2024-01-25T04:00:47;0.50;;;0.50;;
13764;SDS011;6953;48.810;9.204;2024-01-25T04:03:12;0.40;;;0.40;;
13764;SDS011;6953;48.810;9.204;2024-01-25T04:05:38;0.47;;;0.47;;
13764;SDS011;6953;48.810;9.204;2024-01-25T04:08:06;0.50;;;0.50;;
13764;SDS011;6953;48.810;9.204;2024-01-25T04:10:32;0.45;;;0.45;;
13764;SDS011;6953;48.810;9.204;2024-01-25T04:12:57;0.50;;;0.50;;
13764;SDS011;6953;48.810;9.204;2024-01-25T04:15:23;0.43;;;0.43;;
13764;SDS011;6953;48.810;9.204;2024-01-25T04:17:48;0.50;;;0.50;;
13764;SDS011;6953;48.810;9.204;2024-01-25T04:20:14;0.40;;;0.40;;
13764;SDS011;6953;48.810;9.204;2024-01-25T04:22:40;0.40;;;0.40;;
13764;SDS011;6953;48.810;9.204;2024-01-25T04:25:05;0.50;;;0.50;;
13764;SDS011;6953;48.810;9.204;2024-01-25T04:27:31;0.40;;;0.40;;
13764;SDS011;6953;48.810;9.204;2024-01-25T04:29:56;0.40;;;0.40;;
13764;SDS011;6953;48.810;9.204;2024-01-25T04:32:22;0.40;;;0.40;;
13764;SDS011;6953;48.810;9.204;2024-01-25T04:34:47;0.40;;;0.40;;
13764;SDS011;6953;48.810;9.204;2024-01-25T04:37:13;0.50;;;0.50;;
13764;SDS011;6953;48.810;9.204;2024-01-25T04:39:38;0.32;;;0.32;;
13764;SDS011;6953;48.810;9.204;2024-01-25T04:42:04;0.50;;;0.50;;
13764;SDS011;6953;48.810;9.204;2024-01-25T04:44:29;0.40;;;0.40;;
13764;SDS011;6953;48.810;9.204;2024-01-25T04:46:55;0.50;;;0.50;;
13764;SDS011;6953;48.810;9.204;2024-01-25T04:52:42;0.50;;;0.50;;
13764;SDS011;6953;48.810;9.204;2024-01-25T04:55:07;0.60;;;0.60;;
13764;SDS011;6953;48.810;9.204;2024-01-25T04:57:33;0.52;;;0.52;;
13764;SDS011;6953;48.810;9.204;2024-01-25T04:59:58;0.50;;;0.50;;
13764;SDS011;6953;48.810;9.204;2024-01-25T05:02:23;0.60;;;0.60;;
13764;SDS011;6953;48.810;9.204;2024-01-25T05:04:49;0.47;;;0.47;;
13764;SDS011;6953;48.810;9.204;2024-01-25T05:07:14;0.50;;;0.50;;
13764;SDS011;6953;48.810;9.204;2024-01-25T05:09:39;0.50;;;0.50;;
13764;SDS011;6953;48.810;9.204;2024-01-25T05:12:05;0.40;;;0.40;;
13764;SDS011;6953;48.810;9.204;2024-01-25T05:14:30;0.60;;;0.60;;
13764;SDS011;6953;48.810;9.204;2024-01-25T05:16:56;0.50;;;0.50;;
13764;SDS011;6953;48.810;9.204;2024-01-25T05:19:21;0.47;;;0.47;;
13764;SDS011;6953;48.810;9.204;2024-01-25T05:21:46;0.40;;;0.40;;
13764;SDS011;6953;48.810;9.204;2024-01-25T05:24:11;0.50;;;0.50;;
13764;SDS011;6953;48.810;9.204;2024-01-25T05:26:37;0.50;;;0.50;;
13764;SDS011;6953;48.810;9.204;2024-01-25T05:29:03;0.55;;;0.55;;
13764;SDS011;6953;48.810;9.204;2024-01-25T05:31:28;0.40;;;0.40;;
13764;SDS011;6953;48.810;9.204;2024-01-25T05:33:54;0.50;;;0.50;;
13764;SDS011;6953;48.810;9.204;2024-01-25T05:36:19;0.50;;;0.50;;
13764;SDS011;6953;48.810;9.204;2024-01-25T05:42:06;0.50;;;0.50;;
13764;SDS011;6953;48.810;9.204;2024-01-25T05:44:31;0.50;;;0.50;;
13764;SDS011;6953;48.810;9.204;2024-01-25T05:46:57;0.60;;;0.60;;
13764;SDS011;6953;48.810;9.204;2024-01-25T05:49:22;0.55;;;0.55;;
13764;SDS011;6953;48.810;9.204;2024-01-25T05:51:47;0.45;;;0.45;;
13764;SDS011;6953;48.810;9.204;2024-01-25T05:54:13;0.50;;;0.50;;
13764;SDS011;6953;48.810;9.204;2024-01-25T05:56:38;0.40;;;0.40;;
13764;SDS011;6953;48.810;9.204;2024-01-25T05:59:03;0.40;;;0.40;;
13764;SDS011;6953;48.810;9.204;2024-01-25T06:01:28;0.60;;;0.60;;
13764;SDS011;6953;48.810;9.204;2024-01-25T06:03:54;0.50;;;0.50;;
13764;SDS011;6953;48.810;9.204;2024-01-25T06:06:19;0.60;;;0.60;;
13764;SDS011;6953;48.810;9.204;2024-01-25T06:08:44;0.50;;;0.50;;
13764;SDS011;6953;48.810;9.204;2024-01-25T06:11:10;0.32;;;0.32;;
13764;SDS011;6953;48.810;9.204;2024-01-25T06:13:36;0.60;;;0.60;;
13764;SDS011;6953;48.810;9.204;2024-01-25T06:16:01;0.60;;;0.60;;
13764;SDS011;6953;48.810;9.204;2024-01-25T06:18:26;0.50;;;0.50;;
13764;SDS011;6953;48.810;9.204;2024-01-25T06:20:52;0.50;;;0.50;;
13764;SDS011;6953;48.810;9.204;2024-01-25T06:23:17;0.50;;;0.50;;
13764;SDS011;6953;48.810;9.204;2024-01-25T06:25:43;0.50;;;0.50;;
13764;SDS011;6953;48.810;9.204;2024-01-25T06:28:08;0.60;;;0.60;;
13764;SDS011;6953;48.810;9.204;2024-01-25T06:30:34;0.40;;;0.40;;
13764;SDS011;6953;48.810;9.204;2024-01-25T06:32:59;0.50;;;0.50;;
13764;SDS011;6953;48.810;9.204;2024-01-25T06:35:24;0.47;;;0.47;;
13764;SDS011;6953;48.810;9.204;2024-01-25T06:37:50;0.50;;;0.50;;
13764;SDS011;6953;48.810;9.204;2024-01-25T06:40:15;0.40;;;0.40;;
13764;SDS011;6953;48.810;9.204;2024-01-25T06:42:40;0.50;;;0.50;;
13764;SDS011;6953;48.810;9.204;2024-01-25T06:45:07;0.50;;;0.50;;
13764;SDS011;6953;48.810;9.204;2024-01-25T06:47:33;0.57;;;0.57;;
13764;SDS011;6953;48.810;9.204;2024-01-25T06:49:58;0.47;;;0.47;;
13764;SDS011;6953;48.810;9.204;2024-01-25T06:52:23;0.52;;;0.52;;
13764;SDS011;6953;48.810;9.204;2024-01-25T06:54:48;0.40;;;0.40;;
13764;SDS011;6953;48.810;9.204;2024-01-25T06:57:14;0.50;;;0.50;;
13764;SDS011;6953;48.810;9.204;2024-01-25T06:59:39;0.60;;;0.60;;
13764;SDS011;6953;48.810;9.204;2024-01-25T07:02:05;0.50;;;0.50;;
13764;SDS011;6953;48.810;9.204;2024-01-25T07:04:30;0.50;;;0.50;;
13764;SDS011;6953;48.810;9.204;2024-01-25T07:06:55;0.60;;;0.60;;
13764;SDS011;6953;48.810;9.204;2024-01-25T07:09:21;0.57;;;0.57;;
13764;SDS011;6953;48.810;9.204;2024-01-25T07:11:46;0.60;;;0.60;;
13764;SDS011;6953;48.810;9.204;2024-01-25T07:14:11;0.40;;;0.40;;
13764;SDS011;6953;48.810;9.204;2024-01-25T07:16:37;0.50;;;0.50;;
13764;SDS011;6953;48.810;9.204;2024-01-25T07:19:02;0.50;;;0.50;;
13764;SDS011;6953;48.810;9.204;2024-01-25T07:21:28;0.70;;;0.70;;
13764;SDS011;6953;48.810;9.204;2024-01-25T07:23:53;0.52;;;0.52;;
13764;SDS011;6953;48.810;9.204;2024-01-25T07:26:18;0.50;;;0.50;;
13764;SDS011;6953;48.810;9.204;2024-01-25T07:28:44;0.50;;;0.50;;
13764;SDS011;6953;48.810;9.204;2024-01-25T07:31:11;0.40;;;0.40;;
13764;SDS011;6953;48.810;9.204;2024-01-25T07:33:36;0.50;;;0.50;;
13764;SDS011;6953;48.810;9.204;2024-01-25T07:36:02;0.60;;;0.60;;
13764;SDS011;6953;48.810;9.204;2024-01-25T07:38:27;0.50;;;0.50;;
13764;SDS011;6953;48.810;9.204;2024-01-25T07:40:53;0.60;;;0.60;;
13764;SDS011;6953;48.810;9.204;2024-01-25T07:43:18;0.57;;;0.57;;
13764;SDS011;6953;48.810;9.204;2024-01-25T07:45:43;0.40;;;0.40;;
13764;SDS011;6953;48.810;9.204;2024-01-25T07:48:09;0.43;;;0.43;;
13764;SDS011;6953;48.810;9.204;2024-01-25T07:50:34;0.55;;;0.55;;
13764;SDS011;6953;48.810;9.204;2024-01-25T07:52:59;0.50;;;0.50;;
13764;SDS011;6953;48.810;9.204;2024-01-25T07:55:26;0.70;;;0.70;;
13764;SDS011;6953;48.810;9.204;2024-01-25T07:57:51;0.50;;;0.50;;
13764;SDS011;6953;48.810;9.204;2024-01-25T08:00:17;0.55;;;0.55;;
13764;SDS011;6953;48.810;9.204;2024-01-25T08:02:42;0.40;;;0.40;;
13764;SDS011;6953;48.810;9.204;2024-01-25T08:05:09;0.50;;;0.50;;
13764;SDS011;6953;48.810;9.204;2024-01-25T08:07:36;0.50;;;0.50;;
13764;SDS011;6953;48.810;9.204;2024-01-25T08:10:02;0.50;;;0.50;;
13764;SDS011;6953;48.810;9.204;2024-01-25T08:12:29;0.50;;;0.50;;
13764;SDS011;6953;48.810;9.204;2024-01-25T08:14:54;0.40;;;0.40;;
13764;SDS011;6953;48.810;9.204;2024-01-25T08:17:20;0.52;;;0.52;;
13764;SDS011;6953;48.810;9.204;2024-01-25T08:19:45;0.50;;;0.50;;
13764;SDS011;6953;48.810;9.204;2024-01-25T08:22:11;0.30;;;0.30;;
13764;SDS011;6953;48.810;9.204;2024-01-25T08:24:36;0.50;;;0.50;;
13764;SDS011;6953;48.810;9.204;2024-01-25T08:27:02;0.47;;;0.47;;
13764;SDS011;6953;48.810;9.204;2024-01-25T08:29:27;0.40;;;0.40;;
13764;SDS011;6953;48.810;9.204;2024-01-25T08:31:52;0.40;;;0.40;;
13764;SDS011;6953;48.810;9.204;2024-01-25T08:34:18;0.40;;;0.40;;
13764;SDS011;6953;48.810;9.204;2024-01-25T08:36:43;0.43;;;0.43;;
13764;SDS011;6953;48.810;9.204;2024-01-25T08:39:09;0.30;;;0.30;;
13764;SDS011;6953;48.810;9.204;2024-01-25T08:41:34;0.45;;;0.45;;
13764;SDS011;6953;48.810;9.204;2024-01-25T08:44:00;0.43;;;0.43;;
13764;SDS011;6953;48.810;9.204;2024-01-25T08:46:25;0.50;;;0.50;;
13764;SDS011;6953;48.810;9.204;2024-01-25T08:48:50;0.40;;;0.40;;
13764;SDS011;6953;48.810;9.204;2024-01-25T08:51:16;0.30;;;0.30;;
13764;SDS011;6953;48.810;9.204;2024-01-25T08:53:41;0.60;;;0.60;;
13764;SDS011;6953;48.810;9.204;2024-01-25T08:56:06;0.50;;;0.50;;
13764;SDS011;6953;48.810;9.204;2024-01-25T08:58:32;0.40;;;0.40;;
13764;SDS011;6953;48.810;9.204;2024-01-25T09:00:57;0.50;;;0.50;;
13764;SDS011;6953;48.810;9.204;2024-01-25T09:03:22;0.50;;;0.50;;
13764;SDS011;6953;48.810;9.204;2024-01-25T09:05:48;0.50;;;0.50;;
13764;SDS011;6953;48.810;9.204;2024-01-25T09:08:13;0.47;;;0.47;;
13764;SDS011;6953;48.810;9.204;2024-01-25T09:10:40;0.60;;;0.60;;
13764;SDS011;6953;48.810;9.204;2024-01-25T09:13:06;0.40;;;0.40;;
13764;SDS011;6953;48.810;9.204;2024-01-25T09:15:31;0.50;;;0.50;;
13764;SDS011;6953;48.810;9.204;2024-01-25T09:17:56;0.45;;;0.45;;
13764;SDS011;6953;48.810;9.204;2024-01-25T09:20:22;0.50;;;0.50;;
13764;SDS011;6953;48.810;9.204;2024-01-25T09:22:47;0.50;;;0.50;;
13764;SDS011;6953;48.810;9.204;2024-01-25T09:25:13;0.47;;;0.47;;
13764;SDS011;6953;48.810;9.204;2024-01-25T09:27:38;0.40;;;0.40;;
13764;SDS011;6953;48.810;9.204;2024-01-25T09:30:04;0.50;;;0.50;;
13764;SDS011;6953;48.810;9.204;2024-01-25T09:32:30;0.40;;;0.40;;
13764;SDS011;6953;48.810;9.204;2024-01-25T09:34:56;0.30;;;0.30;;
13764;SDS011;6953;48.810;9.204;2024-01-25T09:37:21;0.40;;;0.40;;
13764;SDS011;6953;48.810;9.204;2024-01-25T09:39:48;0.30;;;0.30;;
13764;SDS011;6953;48.810;9.204;2024-01-25T09:42:14;0.28;;;0.28;;
13764;SDS011;6953;48.810;9.204;2024-01-25T09:44:39;0.20;;;0.20;;
13764;SDS011;6953;48.810;9.204;2024-01-25T09:47:05;0.20;;;0.20;;
13764;SDS011;6953;48.810;9.204;2024-01-25T09:49:32;0.20;;;0.20;;
13764;SDS011;6953;48.810;9.204;2024-01-25T09:51:58;0.20;;;0.20;;
13764;SDS011;6953;48.810;9.204;2024-01-25T09:54:28;0.20;;;0.20;;
13764;SDS011;6953;48.810;9.204;2024-01-25T09:56:57;0.10;;;0.10;;
13764;SDS011;6953;48.810;9.204;2024-01-25T09:59:23;0.10;;;0.10;;
13764;SDS011;6953;48.810;9.204;2024-01-25T10:01:49;0.20;;;0.20;;
13764;SDS011;6953;48.810;9.204;2024-01-25T10:04:14;0.10;;;0.10;;
13764;SDS011;6953;48.810;9.204;2024-01-25T10:06:40;0.20;;;0.20;;
13764;SDS011;6953;48.810;9.204;2024-01-25T10:09:05;0.20;;;0.20;;
13764;SDS011;6953;48.810;9.204;2024-01-25T10:11:34;0.20;;;0.20;;
13764;SDS011;6953;48.810;9.204;2024-01-25T10:14:00;0.20;;;0.20;;
13764;SDS011;6953;48.810;9.204;2024-01-25T10:16:26;0.20;;;0.20;;
13764;SDS011;6953;48.810;9.204;2024-01-25T10:18:52;0.22;;;0.22;;
13764;SDS011;6953;48.810;9.204;2024-01-25T10:21:18;0.30;;;0.30;;
13764;SDS011;6953;48.810;9.204;2024-01-25T10:23:44;0.30;;;0.30;;
13764;SDS011;6953;48.810;9.204;2024-01-25T10:26:11;0.30;;;0.30;;
13764;SDS011;6953;48.810;9.204;2024-01-25T10:28:36;0.30;;;0.30;;
13764;SDS011;6953;48.810;9.204;2024-01-25T10:31:02;0.30;;;0.30;;
13764;SDS011;6953;48.810;9.204;2024-01-25T10:33:29;0.20;;;0.20;;
13764;SDS011;6953;48.810;9.204;2024-01-25T10:35:55;0.20;;;0.20;;
13764;SDS011;6953;48.810;9.204;2024-01-25T10:38:26;0.30;;;0.30;;
13764;SDS011;6953;48.810;9.204;2024-01-25T10:40:58;0.20;;;0.20;;
13764;SDS011;6953;48.810;9.204;2024-01-25T10:43:25;0.20;;;0.20;;
13764;SDS011;6953;48.810;9.204;2024-01-25T10:45:50;0.20;;;0.20;;
13764;SDS011;6953;48.810;9.204;2024-01-25T10:48:20;0.20;;;0.20;;
13764;SDS011;6953;48.810;9.204;2024-01-25T10:50:46;0.10;;;0.10;;
13764;SDS011;6953;48.810;9.204;2024-01-25T10:53:13;0.20;;;0.20;;
13764;SDS011;6953;48.810;9.204;2024-01-25T10:55:40;0.15;;;0.15;;
13764;SDS011;6953;48.810;9.204;2024-01-25T10:58:07;0.20;;;0.20;;
13764;SDS011;6953;48.810;9.204;2024-01-25T11:00:33;0.15;;;0.15;;
13764;SDS011;6953;48.810;9.204;2024-01-25T11:03:00;0.20;;;0.20;;
13764;SDS011;6953;48.810;9.204;2024-01-25T11:05:26;0.20;;;0.20;;
13764;SDS011;6953;48.810;9.204;2024-01-25T11:07:52;0.10;;;0.10;;
13764;SDS011;6953;48.810;9.204;2024-01-25T11:10:18;0.10;;;0.10;;
13764;SDS011;6953;48.810;9.204;2024-01-25T11:12:48;0.20;;;0.20;;
13764;SDS011;6953;48.810;9.204;2024-01-25T11:15:19;0.20;;;0.20;;
13764;SDS011;6953;48.810;9.204;2024-01-25T11:17:53;0.10;;;0.10;;
13764;SDS011;6953;48.810;9.204;2024-01-25T11:20:19;0.10;;;0.10;;
13764;SDS011;6953;48.810;9.204;2024-01-25T11:22:46;0.10;;;0.10;;
13764;SDS011;6953;48.810;9.204;2024-01-25T11:25:20;0.10;;;0.10;;
13764;SDS011;6953;48.810;9.204;2024-01-25T11:27:47;0.00;;;0.00;;
13764;SDS011;6953;48.810;9.204;2024-01-25T11:30:14;0.10;;;0.10;;
13764;SDS011;6953;48.810;9.204;2024-01-25T11:32:42;0.10;;;0.10;;
13764;SDS011;6953;48.810;9.204;2024-01-25T11:35:08;0.10;;;0.10;;
13764;SDS011;6953;48.810;9.204;2024-01-25T11:37:36;0.10;;;0.10;;
13764;SDS011;6953;48.810;9.204;2024-01-25T11:40:01;0.10;;;0.10;;
13764;SDS011;6953;48.810;9.204;2024-01-25T11:42:28;0.10;;;0.10;;
13764;SDS011;6953;48.810;9.204;2024-01-25T11:44:55;0.10;;;0.10;;
13764;SDS011;6953;48.810;9.204;2024-01-25T11:47:21;0.10;;;0.10;;
13764;SDS011;6953;48.810;9.204;2024-01-25T11:49:46;0.10;;;0.10;;
13764;SDS011;6953;48.810;9.204;2024-01-25T11:52:11;0.10;;;0.10;;
13764;SDS011;6953;48.810;9.204;2024-01-25T11:54:38;0.10;;;0.10;;
13764;SDS011;6953;48.810;9.204;2024-01-25T11:57:03;0.10;;;0.10;;
13764;SDS011;6953;48.810;9.204;2024-01-25T11:59:30;0.10;;;0.10;;
13764;SDS011;6953;48.810;9.204;2024-01-25T12:01:55;0.10;;;0.10;;
13764;SDS011;6953;48.810;9.204;2024-01-25T12:04:21;0.10;;;0.10;;
13764;SDS011;6953;48.810;9.204;2024-01-25T12:06:47;0.10;;;0.10;;
13764;SDS011;6953;48.810;9.204;2024-01-25T12:09:12;0.10;;;0.10;;
13764;SDS011;6953;48.810;9.204;2024-01-25T12:11:41;0.10;;;0.10;;
13764;SDS011;6953;48.810;9.204;2024-01-25T12:14:07;0.10;;;0.10;;
13764;SDS011;6953;48.810;9.204;2024-01-25T12:16:35;0.10;;;0.10;;
13764;SDS011;6953;48.810;9.204;2024-01-25T12:19:00;0.10;;;0.10;;
13764;SDS011;6953;48.810;9.204;2024-01-25T12:21:26;0.10;;;0.10;;
13764;SDS011;6953;48.810;9.204;2024-01-25T12:23:51;0.10;;;0.10;;
13764;SDS011;6953;48.810;9.204;2024-01-25T12:26:16;0.10;;;0.10;;
13764;SDS011;6953;48.810;9.204;2024-01-25T12:28:42;0.10;;;0.10;;
13764;SDS011;6953;48.810;9.204;2024-01-25T12:31:07;0.10;;;0.10;;
13764;SDS011;6953;48.810;9.204;2024-01-25T12:33:34;0.10;;;0.10;;
13764;SDS011;6953;48.810;9.204;2024-01-25T12:35:59;0.00;;;0.00;;
13764;SDS011;6953;48.810;9.204;2024-01-25T12:38:27;0.10;;;0.10;;
13764;SDS011;6953;48.810;9.204;2024-01-25T12:40:54;0.03;;;0.03;;
13764;SDS011;6953;48.810;9.204;2024-01-25T12:43:20;0.00;;;0.00;;
13764;SDS011;6953;48.810;9.204;2024-01-25T12:45:48;0.10;;;0.10;;
13764;SDS011;6953;48.810;9.204;2024-01-25T12:48:14;0.03;;;0.03;;
13764;SDS011;6953;48.810;9.204;2024-01-25T12:50:40;0.10;;;0.10;;
13764;SDS011;6953;48.810;9.204;2024-01-25T12:53:06;0.00;;;0.00;;
13764;SDS011;6953;48.810;9.204;2024-01-25T12:55:31;0.10;;;0.10;;
13764;SDS011;6953;48.810;9.204;2024-01-25T12:57:58;0.00;;;0.00;;
13764;SDS011;6953;48.810;9.204;2024-01-25T13:00:24;0.10;;;0.10;;
13764;SDS011;6953;48.810;9.204;2024-01-25T13:02:49;0.10;;;0.10;;
13764;SDS011;6953;48.810;9.204;2024-01-25T13:05:15;0.10;;;0.10;;
13764;SDS011;6953;48.810;9.204;2024-01-25T13:07:40;0.10;;;0.10;;
13764;SDS011;6953;48.810;9.204;2024-01-25T13:10:06;0.10;;;0.10;;
13764;SDS011;6953;48.810;9.204;2024-01-25T13:12:33;0.10;;;0.10;;
13764;SDS011;6953;48.810;9.204;2024-01-25T13:14:58;0.10;;;0.10;;
13764;SDS011;6953;48.810;9.204;2024-01-25T13:17:24;0.10;;;0.10;;
13764;SDS011;6953;48.810;9.204;2024-01-25T13:19:50;0.10;;;0.10;;
13764;SDS011;6953;48.810;9.204;2024-01-25T13:22:16;0.10;;;0.10;;
13764;SDS011;6953;48.810;9.204;2024-01-25T13:24:42;0.10;;;0.10;;
13764;SDS011;6953;48.810;9.204;2024-01-25T13:27:08;0.10;;;0.10;;
13764;SDS011;6953;48.810;9.204;2024-01-25T13:29:34;0.10;;;0.10;;
13764;SDS011;6953;48.810;9.204;2024-01-25T13:31:59;0.10;;;0.10;;
13764;SDS011;6953;48.810;9.204;2024-01-25T13:34:24;0.10;;;0.10;;
13764;SDS011;6953;48.810;9.204;2024-01-25T13:36:49;0.20;;;0.20;;
13764;SDS011;6953;48.810;9.204;2024-01-25T13:39:15;0.20;;;0.20;;
13764;SDS011;6953;48.810;9.204;2024-01-25T13:41:40;0.20;;;0.20;;
13764;SDS011;6953;48.810;9.204;2024-01-25T13:44:05;0.20;;;0.20;;
13764;SDS011;6953;48.810;9.204;2024-01-25T13:46:30;0.10;;;0.10;;
13764;SDS011;6953;48.810;9.204;2024-01-25T13:48:56;0.20;;;0.20;;
13764;SDS011;6953;48.810;9.204;2024-01-25T13:51:21;0.15;;;0.15;;
13764;SDS011;6953;48.810;9.204;2024-01-25T13:53:46;0.20;;;0.20;;
13764;SDS011;6953;48.810;9.204;2024-01-25T13:56:12;0.20;;;0.20;;
13764;SDS011;6953;48.810;9.204;2024-01-25T13:58:38;0.20;;;0.20;;
13764;SDS011;6953;48.810;9.204;2024-01-25T14:01:03;0.20;;;0.20;;
13764;SDS011;6953;48.810;9.204;2024-01-25T14:03:29;0.20;;;0.20;;
13764;SDS011;6953;48.810;9.204;2024-01-25T14:05:56;0.20;;;0.20;;
13764;SDS011;6953;48.810;9.204;2024-01-25T14:08:22;0.30;;;0.30;;
13764;SDS011;6953;48.810;9.204;2024-01-25T14:10:47;0.20;;;0.20;;
13764;SDS011;6953;48.810;9.204;2024-01-25T14:13:13;0.30;;;0.30;;
13764;SDS011;6953;48.810;9.204;2024-01-25T14:15:38;0.30;;;0.30;;
13764;SDS011;6953;48.810;9.204;2024-01-25T14:18:03;0.30;;;0.30;;
13764;SDS011;6953;48.810;9.204;2024-01-25T14:20:29;0.30;;;0.30;;
13764;SDS011;6953;48.810;9.204;2024-01-25T14:22:54;0.30;;;0.30;;
13764;SDS011;6953;48.810;9.204;2024-01-25T14:25:19;0.30;;;0.30;;
13764;SDS011;6953;48.810;9.204;2024-01-25T14:27:45;0.47;;;0.47;;
13764;SDS011;6953;48.810;9.204;2024-01-25T14:30:12;0.40;;;0.40;;
13764;SDS011;6953;48.810;9.204;2024-01-25T14:32:38;0.20;;;0.20;;
13764;SDS011;6953;48.810;9.204;2024-01-25T14:35:04;0.30;;;0.30;;
13764;SDS011;6953;48.810;9.204;2024-01-25T14:37:29;0.32;;;0.32;;
13764;SDS011;6953;48.810;9.204;2024-01-25T14:39:56;0.30;;;0.30;;
13764;SDS011;6953;48.810;9.204;2024-01-25T14:42:21;0.30;;;0.30;;
13764;SDS011;6953;48.810;9.204;2024-01-25T14:44:47;0.40;;;0.40;;
13764;SDS011;6953;48.810;9.204;2024-01-25T14:47:12;0.40;;;0.40;;
13764;SDS011;6953;48.810;9.204;2024-01-25T14:49:38;0.30;;;0.30;;
13764;SDS011;6953;48.810;9.204;2024-01-25T14:52:04;0.40;;;0.40;;
13764;SDS011;6953;48.810;9.204;2024-01-25T14:54:29;0.40;;;0.40;;
13764;SDS011;6953;48.810;9.204;2024-01-25T14:56:54;0.30;;;0.30;;